메인 페이지
METAR-TAF:

METAR-TAF

공항 :

Elmira / 코닝, 뉴욕, 미국

위도: 42-09-23N, 경도: 076-54-10W, 고도: 291m

현재 날씨관측

예보는 35분 전, 16:53시(UTC)에 발표되었습니다.
여러 방향의 바람 3kt
온도 11°C
습도 71%
기압 1017 hPa
시정: 16.1km
고도 2100ft 상공 구름 많음
고도 2900ft 상공 흐림

METAR: KELM 041653Z VRB03KT 10SM BKN021 OVC029 11/06 A3002 RMK AO2 SLP170 T01110056

시각: 13:28 (17:28 UTC)

예보

예보는 5 시간 59분 전, 11:29시(UTC)에 발표되었습니다.
예보 대상 시간: 04일 12시부터 05일 12시까지 (UTC)
여러 방향의 바람 4kt
시정: 10km
고도 1200ft 상공 흐림
04일 1800시부터 (UTC)
여러 방향의 바람 3kt
시정: 10km
고도 2700ft 상공 구름 많음

TAF: KELM 041129Z 0412/0512 VRB04KT P6SM OVC012 FM041800 VRB03KT P6SM BKN027

4,000개 이상의 공항 관측 자료 및 예보 (METAR 및 TAF 보고).

지도상에서 검색 가능한 기상관측소가 노란 점과 빨간 점으로 표시되어 있습니다.

기상관측소 명을 보려면 표시 위로 마우스를 이동하세요.

날씨 관측과 예보를 보려면 클릭하세요.

지도 변경 : 확대하려면 엑스 표시가 있는 녹색 버튼, 축소하려면 빼기 표시가 있는 녹색 버튼, 다음 페이지의 지도를 보려면 녹색 화살표를 클릭하세요.


METAR-TAF: